sensor_id;sensor_type;location;lat;lon;timestamp;P1;durP1;ratioP1;P2;durP2;ratioP2
59093;SDS011;44880;52.814;18.270;2023-03-02T00:00:44;60.70;;;33.10;;
59093;SDS011;44880;52.814;18.270;2023-03-02T00:03:15;60.70;;;31.90;;
59093;SDS011;44880;52.814;18.270;2023-03-02T00:05:45;55.50;;;29.40;;
59093;SDS011;44880;52.814;18.270;2023-03-02T00:08:15;61.90;;;32.80;;
59093;SDS011;44880;52.814;18.270;2023-03-02T00:10:45;66.00;;;32.90;;
59093;SDS011;44880;52.814;18.270;2023-03-02T00:13:16;67.10;;;33.00;;
59093;SDS011;44880;52.814;18.270;2023-03-02T00:15:45;67.80;;;35.20;;
59093;SDS011;44880;52.814;18.270;2023-03-02T00:18:15;83.00;;;42.80;;
59093;SDS011;44880;52.814;18.270;2023-03-02T00:20:44;84.80;;;42.10;;
59093;SDS011;44880;52.814;18.270;2023-03-02T00:23:14;71.60;;;40.80;;
59093;SDS011;44880;52.814;18.270;2023-03-02T00:25:44;70.00;;;33.90;;
59093;SDS011;44880;52.814;18.270;2023-03-02T00:28:14;53.90;;;28.00;;
59093;SDS011;44880;52.814;18.270;2023-03-02T00:30:43;57.60;;;28.30;;
59093;SDS011;44880;52.814;18.270;2023-03-02T00:33:13;52.60;;;27.10;;
59093;SDS011;44880;52.814;18.270;2023-03-02T00:35:42;51.50;;;25.10;;
59093;SDS011;44880;52.814;18.270;2023-03-02T00:38:12;50.60;;;24.60;;
59093;SDS011;44880;52.814;18.270;2023-03-02T00:40:44;54.60;;;26.30;;
59093;SDS011;44880;52.814;18.270;2023-03-02T00:43:13;44.70;;;22.10;;
59093;SDS011;44880;52.814;18.270;2023-03-02T00:45:43;43.10;;;20.70;;
59093;SDS011;44880;52.814;18.270;2023-03-02T00:48:12;40.70;;;20.80;;
59093;SDS011;44880;52.814;18.270;2023-03-02T00:50:45;49.00;;;20.50;;
59093;SDS011;44880;52.814;18.270;2023-03-02T00:53:14;45.70;;;20.20;;
59093;SDS011;44880;52.814;18.270;2023-03-02T00:55:52;40.80;;;18.90;;
59093;SDS011;44880;52.814;18.270;2023-03-02T00:58:25;36.10;;;17.20;;
59093;SDS011;44880;52.814;18.270;2023-03-02T01:00:55;32.90;;;15.10;;
59093;SDS011;44880;52.814;18.270;2023-03-02T01:03:25;33.30;;;15.30;;
59093;SDS011;44880;52.814;18.270;2023-03-02T01:05:55;32.90;;;13.80;;
59093;SDS011;44880;52.814;18.270;2023-03-02T01:08:24;32.20;;;14.40;;
59093;SDS011;44880;52.814;18.270;2023-03-02T01:10:54;36.10;;;15.50;;
59093;SDS011;44880;52.814;18.270;2023-03-02T01:13:23;36.00;;;14.90;;
59093;SDS011;44880;52.814;18.270;2023-03-02T01:15:59;37.20;;;16.70;;
59093;SDS011;44880;52.814;18.270;2023-03-02T01:18:28;38.60;;;16.30;;
59093;SDS011;44880;52.814;18.270;2023-03-02T01:21:02;40.60;;;16.10;;
59093;SDS011;44880;52.814;18.270;2023-03-02T01:23:32;34.00;;;15.30;;
59093;SDS011;44880;52.814;18.270;2023-03-02T01:26:04;36.30;;;15.00;;
59093;SDS011;44880;52.814;18.270;2023-03-02T01:28:33;34.10;;;14.90;;
59093;SDS011;44880;52.814;18.270;2023-03-02T01:31:03;32.40;;;14.70;;
59093;SDS011;44880;52.814;18.270;2023-03-02T01:33:32;33.60;;;14.60;;
59093;SDS011;44880;52.814;18.270;2023-03-02T01:36:02;38.30;;;15.80;;
59093;SDS011;44880;52.814;18.270;2023-03-02T01:38:33;44.30;;;18.50;;
59093;SDS011;44880;52.814;18.270;2023-03-02T01:41:03;40.40;;;18.00;;
59093;SDS011;44880;52.814;18.270;2023-03-02T01:43:33;43.00;;;19.80;;
59093;SDS011;44880;52.814;18.270;2023-03-02T01:46:03;32.00;;;15.10;;
59093;SDS011;44880;52.814;18.270;2023-03-02T01:48:46;34.40;;;15.60;;
59093;SDS011;44880;52.814;18.270;2023-03-02T01:51:22;39.10;;;16.20;;
59093;SDS011;44880;52.814;18.270;2023-03-02T01:56:25;39.80;;;16.10;;
59093;SDS011;44880;52.814;18.270;2023-03-02T01:58:57;42.00;;;16.20;;
59093;SDS011;44880;52.814;18.270;2023-03-02T02:01:29;37.30;;;15.90;;
59093;SDS011;44880;52.814;18.270;2023-03-02T02:04:00;36.70;;;14.10;;
59093;SDS011;44880;52.814;18.270;2023-03-02T02:06:31;39.90;;;16.70;;
59093;SDS011;44880;52.814;18.270;2023-03-02T02:09:02;33.90;;;14.40;;
59093;SDS011;44880;52.814;18.270;2023-03-02T02:11:32;30.80;;;13.70;;
59093;SDS011;44880;52.814;18.270;2023-03-02T02:14:01;35.80;;;15.60;;
59093;SDS011;44880;52.814;18.270;2023-03-02T02:16:32;37.80;;;16.30;;
59093;SDS011;44880;52.814;18.270;2023-03-02T02:19:02;45.40;;;15.30;;
59093;SDS011;44880;52.814;18.270;2023-03-02T02:21:32;43.90;;;17.50;;
59093;SDS011;44880;52.814;18.270;2023-03-02T02:24:05;43.00;;;17.00;;
59093;SDS011;44880;52.814;18.270;2023-03-02T02:26:37;41.30;;;16.80;;
59093;SDS011;44880;52.814;18.270;2023-03-02T02:29:09;42.70;;;16.40;;
59093;SDS011;44880;52.814;18.270;2023-03-02T02:34:10;44.20;;;16.80;;
59093;SDS011;44880;52.814;18.270;2023-03-02T02:36:42;37.50;;;16.10;;
59093;SDS011;44880;52.814;18.270;2023-03-02T02:39:16;32.40;;;15.00;;
59093;SDS011;44880;52.814;18.270;2023-03-02T02:41:48;44.00;;;16.70;;
59093;SDS011;44880;52.814;18.270;2023-03-02T02:44:19;37.40;;;15.20;;
59093;SDS011;44880;52.814;18.270;2023-03-02T02:46:48;42.50;;;17.50;;
59093;SDS011;44880;52.814;18.270;2023-03-02T02:49:23;41.50;;;15.80;;
59093;SDS011;44880;52.814;18.270;2023-03-02T02:51:56;44.30;;;17.00;;
59093;SDS011;44880;52.814;18.270;2023-03-02T02:54:25;44.90;;;18.40;;
59093;SDS011;44880;52.814;18.270;2023-03-02T02:56:56;41.60;;;15.90;;
59093;SDS011;44880;52.814;18.270;2023-03-02T02:59:27;47.00;;;17.80;;
59093;SDS011;44880;52.814;18.270;2023-03-02T03:04:28;53.50;;;18.90;;
59093;SDS011;44880;52.814;18.270;2023-03-02T03:06:59;53.70;;;22.00;;
59093;SDS011;44880;52.814;18.270;2023-03-02T03:12:00;57.90;;;23.10;;
59093;SDS011;44880;52.814;18.270;2023-03-02T03:14:34;58.70;;;21.50;;
59093;SDS011;44880;52.814;18.270;2023-03-02T03:17:06;50.20;;;20.70;;
59093;SDS011;44880;52.814;18.270;2023-03-02T03:19:39;53.10;;;20.40;;
59093;SDS011;44880;52.814;18.270;2023-03-02T03:22:10;58.10;;;20.70;;
59093;SDS011;44880;52.814;18.270;2023-03-02T03:24:41;45.60;;;19.20;;
59093;SDS011;44880;52.814;18.270;2023-03-02T03:27:11;52.00;;;20.60;;
59093;SDS011;44880;52.814;18.270;2023-03-02T03:29:42;52.60;;;20.50;;
59093;SDS011;44880;52.814;18.270;2023-03-02T03:32:13;63.50;;;25.70;;
59093;SDS011;44880;52.814;18.270;2023-03-02T03:34:43;61.80;;;25.90;;
59093;SDS011;44880;52.814;18.270;2023-03-02T03:37:21;68.00;;;28.30;;
59093;SDS011;44880;52.814;18.270;2023-03-02T03:39:50;81.90;;;29.40;;
59093;SDS011;44880;52.814;18.270;2023-03-02T03:42:19;76.30;;;29.20;;
59093;SDS011;44880;52.814;18.270;2023-03-02T03:44:50;80.30;;;30.80;;
59093;SDS011;44880;52.814;18.270;2023-03-02T03:47:21;57.70;;;24.00;;
59093;SDS011;44880;52.814;18.270;2023-03-02T03:49:51;60.70;;;24.10;;
59093;SDS011;44880;52.814;18.270;2023-03-02T03:52:21;59.50;;;25.70;;
59093;SDS011;44880;52.814;18.270;2023-03-02T03:54:58;56.10;;;22.90;;
59093;SDS011;44880;52.814;18.270;2023-03-02T03:57:28;63.90;;;23.40;;
59093;SDS011;44880;52.814;18.270;2023-03-02T03:59:58;61.40;;;23.70;;
59093;SDS011;44880;52.814;18.270;2023-03-02T04:02:27;56.20;;;20.60;;
59093;SDS011;44880;52.814;18.270;2023-03-02T04:04:57;60.60;;;22.10;;
59093;SDS011;44880;52.814;18.270;2023-03-02T04:07:33;65.50;;;24.60;;
59093;SDS011;44880;52.814;18.270;2023-03-02T04:10:03;65.10;;;25.00;;
59093;SDS011;44880;52.814;18.270;2023-03-02T04:12:37;68.50;;;26.90;;
59093;SDS011;44880;52.814;18.270;2023-03-02T04:15:08;74.90;;;28.10;;
59093;SDS011;44880;52.814;18.270;2023-03-02T04:17:40;76.80;;;26.70;;
59093;SDS011;44880;52.814;18.270;2023-03-02T04:20:12;82.70;;;28.90;;
59093;SDS011;44880;52.814;18.270;2023-03-02T04:22:44;75.40;;;29.30;;
59093;SDS011;44880;52.814;18.270;2023-03-02T04:25:16;79.50;;;30.20;;
59093;SDS011;44880;52.814;18.270;2023-03-02T04:27:47;93.60;;;32.00;;
59093;SDS011;44880;52.814;18.270;2023-03-02T04:30:19;88.20;;;32.10;;
59093;SDS011;44880;52.814;18.270;2023-03-02T04:32:50;86.30;;;32.70;;
59093;SDS011;44880;52.814;18.270;2023-03-02T04:35:20;88.30;;;34.50;;
59093;SDS011;44880;52.814;18.270;2023-03-02T04:37:49;81.60;;;33.40;;
59093;SDS011;44880;52.814;18.270;2023-03-02T04:40:20;82.60;;;33.90;;
59093;SDS011;44880;52.814;18.270;2023-03-02T04:42:50;82.70;;;33.00;;
59093;SDS011;44880;52.814;18.270;2023-03-02T04:45:20;81.00;;;31.30;;
59093;SDS011;44880;52.814;18.270;2023-03-02T04:47:49;74.30;;;30.40;;
59093;SDS011;44880;52.814;18.270;2023-03-02T04:50:18;82.40;;;31.50;;
59093;SDS011;44880;52.814;18.270;2023-03-02T04:52:47;79.80;;;29.60;;
59093;SDS011;44880;52.814;18.270;2023-03-02T04:55:19;73.10;;;29.40;;
59093;SDS011;44880;52.814;18.270;2023-03-02T04:57:50;78.60;;;30.80;;
59093;SDS011;44880;52.814;18.270;2023-03-02T05:00:20;70.40;;;27.10;;
59093;SDS011;44880;52.814;18.270;2023-03-02T05:02:50;65.60;;;28.10;;
59093;SDS011;44880;52.814;18.270;2023-03-02T05:05:20;63.00;;;26.70;;
59093;SDS011;44880;52.814;18.270;2023-03-02T05:07:51;57.00;;;26.80;;
59093;SDS011;44880;52.814;18.270;2023-03-02T05:10:22;56.40;;;23.40;;
59093;SDS011;44880;52.814;18.270;2023-03-02T05:12:52;61.40;;;23.00;;
59093;SDS011;44880;52.814;18.270;2023-03-02T05:15:25;49.80;;;21.00;;
59093;SDS011;44880;52.814;18.270;2023-03-02T05:17:57;51.60;;;21.40;;
59093;SDS011;44880;52.814;18.270;2023-03-02T05:20:27;50.70;;;22.90;;
59093;SDS011;44880;52.814;18.270;2023-03-02T05:22:58;47.10;;;22.40;;
59093;SDS011;44880;52.814;18.270;2023-03-02T05:25:30;49.40;;;23.40;;
59093;SDS011;44880;52.814;18.270;2023-03-02T05:30:30;55.50;;;22.00;;
59093;SDS011;44880;52.814;18.270;2023-03-02T05:33:03;50.90;;;20.40;;
59093;SDS011;44880;52.814;18.270;2023-03-02T05:35:32;43.50;;;19.90;;
59093;SDS011;44880;52.814;18.270;2023-03-02T05:38:02;45.40;;;20.40;;
59093;SDS011;44880;52.814;18.270;2023-03-02T05:40:31;43.70;;;20.40;;
59093;SDS011;44880;52.814;18.270;2023-03-02T05:43:01;48.50;;;19.60;;
59093;SDS011;44880;52.814;18.270;2023-03-02T05:45:32;46.20;;;20.90;;
59093;SDS011;44880;52.814;18.270;2023-03-02T05:48:03;41.40;;;20.30;;
59093;SDS011;44880;52.814;18.270;2023-03-02T05:50:33;42.60;;;20.00;;
59093;SDS011;44880;52.814;18.270;2023-03-02T05:53:03;43.10;;;20.90;;
59093;SDS011;44880;52.814;18.270;2023-03-02T05:55:32;40.10;;;19.50;;
59093;SDS011;44880;52.814;18.270;2023-03-02T05:58:03;44.00;;;20.70;;
59093;SDS011;44880;52.814;18.270;2023-03-02T06:00:32;44.90;;;20.50;;
59093;SDS011;44880;52.814;18.270;2023-03-02T06:03:02;41.50;;;19.40;;
59093;SDS011;44880;52.814;18.270;2023-03-02T06:05:31;38.70;;;18.40;;
59093;SDS011;44880;52.814;18.270;2023-03-02T06:08:01;38.80;;;19.20;;
59093;SDS011;44880;52.814;18.270;2023-03-02T06:10:30;35.60;;;16.40;;
59093;SDS011;44880;52.814;18.270;2023-03-02T06:13:00;34.80;;;17.50;;
59093;SDS011;44880;52.814;18.270;2023-03-02T06:15:29;33.40;;;16.10;;
59093;SDS011;44880;52.814;18.270;2023-03-02T06:17:59;31.60;;;16.80;;
59093;SDS011;44880;52.814;18.270;2023-03-02T06:20:28;32.60;;;16.70;;
59093;SDS011;44880;52.814;18.270;2023-03-02T06:22:58;31.60;;;16.00;;
59093;SDS011;44880;52.814;18.270;2023-03-02T06:25:28;39.50;;;19.60;;
59093;SDS011;44880;52.814;18.270;2023-03-02T06:27:58;39.40;;;19.50;;
59093;SDS011;44880;52.814;18.270;2023-03-02T06:30:28;35.40;;;19.50;;
59093;SDS011;44880;52.814;18.270;2023-03-02T06:32:57;36.90;;;18.90;;
59093;SDS011;44880;52.814;18.270;2023-03-02T06:35:26;35.60;;;18.30;;
59093;SDS011;44880;52.814;18.270;2023-03-02T06:37:56;37.90;;;19.60;;
59093;SDS011;44880;52.814;18.270;2023-03-02T06:40:25;35.30;;;18.60;;
59093;SDS011;44880;52.814;18.270;2023-03-02T06:42:55;27.50;;;13.20;;
59093;SDS011;44880;52.814;18.270;2023-03-02T06:45:26;24.60;;;13.00;;
59093;SDS011;44880;52.814;18.270;2023-03-02T06:47:59;22.50;;;12.40;;
59093;SDS011;44880;52.814;18.270;2023-03-02T06:52:59;20.70;;;12.00;;
59093;SDS011;44880;52.814;18.270;2023-03-02T06:55:29;22.10;;;11.40;;
59093;SDS011;44880;52.814;18.270;2023-03-02T06:57:58;18.10;;;10.20;;
59093;SDS011;44880;52.814;18.270;2023-03-02T07:00:28;19.50;;;10.70;;
59093;SDS011;44880;52.814;18.270;2023-03-02T07:02:57;19.90;;;10.10;;
59093;SDS011;44880;52.814;18.270;2023-03-02T07:05:27;20.10;;;10.80;;
59093;SDS011;44880;52.814;18.270;2023-03-02T07:07:58;18.50;;;11.00;;
59093;SDS011;44880;52.814;18.270;2023-03-02T07:10:28;20.30;;;10.60;;
59093;SDS011;44880;52.814;18.270;2023-03-02T07:12:57;20.10;;;10.80;;
59093;SDS011;44880;52.814;18.270;2023-03-02T07:15:27;25.90;;;12.20;;
59093;SDS011;44880;52.814;18.270;2023-03-02T07:17:56;22.30;;;12.60;;
59093;SDS011;44880;52.814;18.270;2023-03-02T07:20:25;22.20;;;11.70;;
59093;SDS011;44880;52.814;18.270;2023-03-02T07:22:55;20.80;;;11.20;;
59093;SDS011;44880;52.814;18.270;2023-03-02T07:25:24;15.70;;;9.20;;
59093;SDS011;44880;52.814;18.270;2023-03-02T07:27:54;17.00;;;9.60;;
59093;SDS011;44880;52.814;18.270;2023-03-02T07:30:23;16.50;;;10.30;;
59093;SDS011;44880;52.814;18.270;2023-03-02T07:32:53;19.70;;;10.70;;
59093;SDS011;44880;52.814;18.270;2023-03-02T07:35:22;17.90;;;9.80;;
59093;SDS011;44880;52.814;18.270;2023-03-02T07:37:52;16.00;;;10.10;;
59093;SDS011;44880;52.814;18.270;2023-03-02T07:40:21;17.30;;;10.10;;
59093;SDS011;44880;52.814;18.270;2023-03-02T07:42:51;17.30;;;10.00;;
59093;SDS011;44880;52.814;18.270;2023-03-02T07:45:20;16.20;;;9.80;;
59093;SDS011;44880;52.814;18.270;2023-03-02T07:47:51;16.30;;;9.80;;
59093;SDS011;44880;52.814;18.270;2023-03-02T07:50:20;20.20;;;11.20;;
59093;SDS011;44880;52.814;18.270;2023-03-02T07:52:50;17.40;;;10.60;;
59093;SDS011;44880;52.814;18.270;2023-03-02T07:55:19;18.90;;;9.90;;
59093;SDS011;44880;52.814;18.270;2023-03-02T07:57:49;16.70;;;9.90;;
59093;SDS011;44880;52.814;18.270;2023-03-02T08:00:20;18.60;;;9.50;;
59093;SDS011;44880;52.814;18.270;2023-03-02T08:02:50;16.80;;;9.80;;
59093;SDS011;44880;52.814;18.270;2023-03-02T08:05:20;17.40;;;10.00;;
59093;SDS011;44880;52.814;18.270;2023-03-02T08:07:49;16.30;;;10.20;;
59093;SDS011;44880;52.814;18.270;2023-03-02T08:10:19;17.90;;;9.90;;
59093;SDS011;44880;52.814;18.270;2023-03-02T08:12:49;16.40;;;9.40;;
59093;SDS011;44880;52.814;18.270;2023-03-02T08:15:18;18.70;;;10.20;;
59093;SDS011;44880;52.814;18.270;2023-03-02T08:17:47;19.90;;;10.70;;
59093;SDS011;44880;52.814;18.270;2023-03-02T08:20:17;19.50;;;11.20;;
59093;SDS011;44880;52.814;18.270;2023-03-02T08:22:47;17.20;;;10.60;;
59093;SDS011;44880;52.814;18.270;2023-03-02T08:25:18;19.70;;;11.20;;
59093;SDS011;44880;52.814;18.270;2023-03-02T08:27:47;19.30;;;11.60;;
59093;SDS011;44880;52.814;18.270;2023-03-02T08:30:18;19.20;;;10.80;;
59093;SDS011;44880;52.814;18.270;2023-03-02T08:32:48;18.70;;;9.20;;
59093;SDS011;44880;52.814;18.270;2023-03-02T08:35:18;17.00;;;8.40;;
59093;SDS011;44880;52.814;18.270;2023-03-02T08:37:48;19.20;;;8.30;;
59093;SDS011;44880;52.814;18.270;2023-03-02T08:40:19;13.70;;;7.60;;
59093;SDS011;44880;52.814;18.270;2023-03-02T08:42:50;12.40;;;6.80;;
59093;SDS011;44880;52.814;18.270;2023-03-02T08:45:23;13.30;;;6.50;;
59093;SDS011;44880;52.814;18.270;2023-03-02T08:47:53;12.50;;;5.40;;
59093;SDS011;44880;52.814;18.270;2023-03-02T08:50:25;9.40;;;5.00;;
59093;SDS011;44880;52.814;18.270;2023-03-02T08:52:56;14.60;;;6.10;;
59093;SDS011;44880;52.814;18.270;2023-03-02T08:55:26;13.00;;;5.80;;
59093;SDS011;44880;52.814;18.270;2023-03-02T08:57:56;12.40;;;5.70;;
59093;SDS011;44880;52.814;18.270;2023-03-02T09:00:26;10.30;;;5.00;;
59093;SDS011;44880;52.814;18.270;2023-03-02T09:02:57;11.50;;;5.10;;
59093;SDS011;44880;52.814;18.270;2023-03-02T09:05:29;11.20;;;5.10;;
59093;SDS011;44880;52.814;18.270;2023-03-02T09:08:00;10.70;;;5.00;;
59093;SDS011;44880;52.814;18.270;2023-03-02T09:10:30;9.10;;;4.70;;
59093;SDS011;44880;52.814;18.270;2023-03-02T09:13:01;10.40;;;4.20;;
59093;SDS011;44880;52.814;18.270;2023-03-02T09:15:30;10.60;;;4.30;;
59093;SDS011;44880;52.814;18.270;2023-03-02T09:18:00;10.10;;;4.40;;
59093;SDS011;44880;52.814;18.270;2023-03-02T09:20:29;9.00;;;4.00;;
59093;SDS011;44880;52.814;18.270;2023-03-02T09:23:00;8.80;;;4.40;;
59093;SDS011;44880;52.814;18.270;2023-03-02T09:25:29;9.70;;;4.10;;
59093;SDS011;44880;52.814;18.270;2023-03-02T09:27:58;9.80;;;4.30;;
59093;SDS011;44880;52.814;18.270;2023-03-02T09:30:28;11.40;;;4.20;;
59093;SDS011;44880;52.814;18.270;2023-03-02T09:32:58;9.70;;;4.20;;
59093;SDS011;44880;52.814;18.270;2023-03-02T09:35:28;11.70;;;3.50;;
59093;SDS011;44880;52.814;18.270;2023-03-02T09:37:57;8.90;;;3.70;;
59093;SDS011;44880;52.814;18.270;2023-03-02T09:40:27;10.10;;;3.80;;
59093;SDS011;44880;52.814;18.270;2023-03-02T09:43:07;8.70;;;3.90;;
59093;SDS011;44880;52.814;18.270;2023-03-02T09:45:55;9.50;;;3.90;;
59093;SDS011;44880;52.814;18.270;2023-03-02T09:48:33;9.10;;;4.00;;
59093;SDS011;44880;52.814;18.270;2023-03-02T09:51:10;9.60;;;4.00;;
59093;SDS011;44880;52.814;18.270;2023-03-02T09:53:49;8.40;;;3.80;;
59093;SDS011;44880;52.814;18.270;2023-03-02T09:56:21;10.50;;;4.50;;
59093;SDS011;44880;52.814;18.270;2023-03-02T09:58:52;10.20;;;4.70;;
59093;SDS011;44880;52.814;18.270;2023-03-02T10:01:29;13.00;;;6.50;;
59093;SDS011;44880;52.814;18.270;2023-03-02T10:04:06;9.70;;;4.50;;
59093;SDS011;44880;52.814;18.270;2023-03-02T10:06:38;10.30;;;4.40;;
59093;SDS011;44880;52.814;18.270;2023-03-02T10:09:18;9.30;;;4.40;;
59093;SDS011;44880;52.814;18.270;2023-03-02T10:11:53;10.70;;;4.80;;
59093;SDS011;44880;52.814;18.270;2023-03-02T10:14:43;11.90;;;5.60;;
59093;SDS011;44880;52.814;18.270;2023-03-02T10:20:07;11.50;;;5.40;;
59093;SDS011;44880;52.814;18.270;2023-03-02T10:22:49;10.40;;;5.10;;
59093;SDS011;44880;52.814;18.270;2023-03-02T10:25:23;11.80;;;5.70;;
59093;SDS011;44880;52.814;18.270;2023-03-02T10:28:11;11.00;;;6.10;;
59093;SDS011;44880;52.814;18.270;2023-03-02T10:30:54;11.00;;;6.70;;
59093;SDS011;44880;52.814;18.270;2023-03-02T10:33:28;12.60;;;6.10;;
59093;SDS011;44880;52.814;18.270;2023-03-02T10:35:59;13.70;;;5.80;;
59093;SDS011;44880;52.814;18.270;2023-03-02T10:38:36;10.30;;;5.50;;
59093;SDS011;44880;52.814;18.270;2023-03-02T10:41:09;10.40;;;4.70;;
59093;SDS011;44880;52.814;18.270;2023-03-02T10:43:42;12.70;;;6.30;;
59093;SDS011;44880;52.814;18.270;2023-03-02T10:48:46;10.70;;;6.40;;
59093;SDS011;44880;52.814;18.270;2023-03-02T10:51:24;10.80;;;6.00;;
59093;SDS011;44880;52.814;18.270;2023-03-02T10:54:10;12.30;;;6.20;;
59093;SDS011;44880;52.814;18.270;2023-03-02T10:56:55;13.40;;;6.50;;
59093;SDS011;44880;52.814;18.270;2023-03-02T10:59:46;13.40;;;6.70;;
59093;SDS011;44880;52.814;18.270;2023-03-02T11:02:32;11.30;;;6.90;;
59093;SDS011;44880;52.814;18.270;2023-03-02T11:08:16;12.00;;;5.90;;
59093;SDS011;44880;52.814;18.270;2023-03-02T11:10:51;12.50;;;6.30;;
59093;SDS011;44880;52.814;18.270;2023-03-02T11:13:27;10.90;;;6.10;;
59093;SDS011;44880;52.814;18.270;2023-03-02T11:16:01;10.90;;;6.20;;
59093;SDS011;44880;52.814;18.270;2023-03-02T11:18:33;11.50;;;6.20;;
59093;SDS011;44880;52.814;18.270;2023-03-02T11:21:12;13.00;;;6.90;;
59093;SDS011;44880;52.814;18.270;2023-03-02T11:23:56;10.80;;;6.60;;
59093;SDS011;44880;52.814;18.270;2023-03-02T11:26:30;10.90;;;6.30;;
59093;SDS011;44880;52.814;18.270;2023-03-02T11:29:03;14.60;;;7.60;;
59093;SDS011;44880;52.814;18.270;2023-03-02T11:31:40;12.10;;;7.00;;
59093;SDS011;44880;52.814;18.270;2023-03-02T11:34:19;10.90;;;6.30;;
59093;SDS011;44880;52.814;18.270;2023-03-02T11:36:59;12.10;;;6.40;;
59093;SDS011;44880;52.814;18.270;2023-03-02T11:42:37;11.80;;;7.40;;
59093;SDS011;44880;52.814;18.270;2023-03-02T11:45:18;15.10;;;7.50;;
59093;SDS011;44880;52.814;18.270;2023-03-02T11:47:52;13.10;;;7.40;;
59093;SDS011;44880;52.814;18.270;2023-03-02T11:50:29;13.60;;;6.30;;
59093;SDS011;44880;52.814;18.270;2023-03-02T11:53:10;11.70;;;6.70;;
59093;SDS011;44880;52.814;18.270;2023-03-02T11:55:43;13.40;;;7.10;;
59093;SDS011;44880;52.814;18.270;2023-03-02T11:58:23;11.60;;;7.30;;
59093;SDS011;44880;52.814;18.270;2023-03-02T12:01:03;14.40;;;7.30;;
59093;SDS011;44880;52.814;18.270;2023-03-02T12:03:37;11.70;;;7.70;;
59093;SDS011;44880;52.814;18.270;2023-03-02T12:06:23;14.80;;;8.80;;
59093;SDS011;44880;52.814;18.270;2023-03-02T12:12:16;15.60;;;8.40;;
59093;SDS011;44880;52.814;18.270;2023-03-02T12:14:59;15.50;;;8.00;;
59093;SDS011;44880;52.814;18.270;2023-03-02T12:17:30;14.90;;;8.50;;
59093;SDS011;44880;52.814;18.270;2023-03-02T12:20:21;15.90;;;8.10;;
59093;SDS011;44880;52.814;18.270;2023-03-02T12:22:53;14.60;;;8.50;;
59093;SDS011;44880;52.814;18.270;2023-03-02T12:25:41;20.30;;;10.30;;
59093;SDS011;44880;52.814;18.270;2023-03-02T12:28:28;16.70;;;9.30;;
59093;SDS011;44880;52.814;18.270;2023-03-02T12:33:46;15.00;;;8.70;;
59093;SDS011;44880;52.814;18.270;2023-03-02T12:36:19;14.20;;;8.60;;
59093;SDS011;44880;52.814;18.270;2023-03-02T12:39:08;16.00;;;8.70;;
59093;SDS011;44880;52.814;18.270;2023-03-02T12:41:56;14.80;;;8.70;;
59093;SDS011;44880;52.814;18.270;2023-03-02T12:44:57;12.70;;;8.10;;
59093;SDS011;44880;52.814;18.270;2023-03-02T12:47:31;16.20;;;9.50;;
59093;SDS011;44880;52.814;18.270;2023-03-02T12:50:04;15.60;;;9.80;;
59093;SDS011;44880;52.814;18.270;2023-03-02T12:52:56;16.20;;;9.30;;
59093;SDS011;44880;52.814;18.270;2023-03-02T12:55:27;17.30;;;10.40;;
59093;SDS011;44880;52.814;18.270;2023-03-02T12:58:03;91.60;;;33.90;;
59093;SDS011;44880;52.814;18.270;2023-03-02T13:00:50;19.40;;;10.90;;
59093;SDS011;44880;52.814;18.270;2023-03-02T13:03:24;19.60;;;11.10;;
59093;SDS011;44880;52.814;18.270;2023-03-02T13:08:47;15.80;;;10.00;;
59093;SDS011;44880;52.814;18.270;2023-03-02T13:11:20;19.10;;;9.30;;
59093;SDS011;44880;52.814;18.270;2023-03-02T13:13:54;16.30;;;9.90;;
59093;SDS011;44880;52.814;18.270;2023-03-02T13:16:31;19.00;;;9.30;;
59093;SDS011;44880;52.814;18.270;2023-03-02T13:19:08;15.90;;;10.00;;
59093;SDS011;44880;52.814;18.270;2023-03-02T13:21:44;16.30;;;9.00;;
59093;SDS011;44880;52.814;18.270;2023-03-02T13:27:16;16.00;;;11.00;;
59093;SDS011;44880;52.814;18.270;2023-03-02T13:30:10;18.90;;;10.50;;
59093;SDS011;44880;52.814;18.270;2023-03-02T13:32:49;19.30;;;10.70;;
59093;SDS011;44880;52.814;18.270;2023-03-02T13:35:27;16.60;;;9.50;;
59093;SDS011;44880;52.814;18.270;2023-03-02T13:38:00;17.30;;;9.90;;
59093;SDS011;44880;52.814;18.270;2023-03-02T13:40:32;18.20;;;10.60;;
59093;SDS011;44880;52.814;18.270;2023-03-02T13:43:19;18.10;;;9.60;;
59093;SDS011;44880;52.814;18.270;2023-03-02T13:45:54;16.00;;;9.70;;
59093;SDS011;44880;52.814;18.270;2023-03-02T13:48:24;18.00;;;10.20;;
59093;SDS011;44880;52.814;18.270;2023-03-02T13:50:59;16.20;;;9.50;;
59093;SDS011;44880;52.814;18.270;2023-03-02T13:53:41;16.70;;;9.90;;
59093;SDS011;44880;52.814;18.270;2023-03-02T13:58:40;21.20;;;10.60;;
59093;SDS011;44880;52.814;18.270;2023-03-02T14:01:14;18.20;;;10.50;;
59093;SDS011;44880;52.814;18.270;2023-03-02T14:03:53;17.50;;;10.60;;
59093;SDS011;44880;52.814;18.270;2023-03-02T14:06:27;17.50;;;9.30;;
59093;SDS011;44880;52.814;18.270;2023-03-02T14:11:45;16.30;;;9.00;;
59093;SDS011;44880;52.814;18.270;2023-03-02T14:14:17;17.70;;;9.70;;
59093;SDS011;44880;52.814;18.270;2023-03-02T14:19:42;21.20;;;11.20;;
59093;SDS011;44880;52.814;18.270;2023-03-02T14:22:18;16.50;;;9.60;;
59093;SDS011;44880;52.814;18.270;2023-03-02T14:27:36;18.10;;;9.20;;
59093;SDS011;44880;52.814;18.270;2023-03-02T14:30:14;15.30;;;9.50;;
59093;SDS011;44880;52.814;18.270;2023-03-02T14:33:08;23.90;;;12.00;;
59093;SDS011;44880;52.814;18.270;2023-03-02T14:35:43;19.50;;;11.40;;
59093;SDS011;44880;52.814;18.270;2023-03-02T14:41:08;20.60;;;11.70;;
59093;SDS011;44880;52.814;18.270;2023-03-02T14:43:41;21.20;;;11.80;;
59093;SDS011;44880;52.814;18.270;2023-03-02T14:48:56;21.90;;;13.60;;
59093;SDS011;44880;52.814;18.270;2023-03-02T14:51:29;22.80;;;13.60;;
59093;SDS011;44880;52.814;18.270;2023-03-02T14:56:53;24.70;;;14.60;;
59093;SDS011;44880;52.814;18.270;2023-03-02T14:59:23;27.90;;;15.10;;
59093;SDS011;44880;52.814;18.270;2023-03-02T15:02:02;26.60;;;15.50;;
59093;SDS011;44880;52.814;18.270;2023-03-02T15:04:45;31.10;;;20.80;;
59093;SDS011;44880;52.814;18.270;2023-03-02T15:07:18;33.10;;;24.70;;
59093;SDS011;44880;52.814;18.270;2023-03-02T15:12:40;25.30;;;16.10;;
59093;SDS011;44880;52.814;18.270;2023-03-02T15:15:10;26.10;;;15.60;;
59093;SDS011;44880;52.814;18.270;2023-03-02T15:20:38;30.30;;;18.60;;
59093;SDS011;44880;52.814;18.270;2023-03-02T15:23:07;29.00;;;17.10;;
59093;SDS011;44880;52.814;18.270;2023-03-02T15:28:31;36.20;;;21.00;;
59093;SDS011;44880;52.814;18.270;2023-03-02T15:31:05;32.00;;;19.10;;
59093;SDS011;44880;52.814;18.270;2023-03-02T15:33:58;34.60;;;19.50;;
59093;SDS011;44880;52.814;18.270;2023-03-02T15:36:28;33.30;;;17.60;;
59093;SDS011;44880;52.814;18.270;2023-03-02T15:41:53;31.90;;;18.60;;
59093;SDS011;44880;52.814;18.270;2023-03-02T15:44:24;37.40;;;19.70;;
59093;SDS011;44880;52.814;18.270;2023-03-02T15:49:45;31.20;;;18.30;;
59093;SDS011;44880;52.814;18.270;2023-03-02T15:52:16;35.50;;;19.60;;
59093;SDS011;44880;52.814;18.270;2023-03-02T15:54:47;33.20;;;20.00;;
59093;SDS011;44880;52.814;18.270;2023-03-02T15:57:49;31.90;;;18.20;;